Terminal Aerodrome Forecast
Issued by NWS Jackson, MS

Home | Current Version | Previous Version | Text Only | Print | Product List | Glossary On
Versions: 1 2 3 4 5 6 7 8 9 10 11 12 13 14 15 16 17 18 19 20 21 22 23 24 25 26 27 28
000
FTUS44 KJAN 190558
TAFHBG
TAF
KHBG 190558Z 1906/2006 17009KT P6SM VCSH BKN008
     FM191500 19013G21KT P6SM VCTS BKN015CB
     FM191700 21012G22KT 4SM -TSRA BR BKN025CB
     FM192000 24011G19KT P6SM VCSH BKN025
     FM192200 27013G25KT P6SM BKN025=

USA.gov is the U.S. government's official web portal to all federal, state and local government web resources and services.